createdAt,value
2019-04-14T00:01:13.410Z,99.90
2019-04-14T00:03:50.233Z,99.90
2019-04-14T00:06:20.247Z,99.90
2019-04-14T00:08:50.193Z,99.90
2019-04-14T00:11:19.683Z,99.90
2019-04-14T00:13:50.134Z,99.90
2019-04-14T00:16:20.620Z,99.90
2019-04-14T00:18:51.162Z,99.90
2019-04-14T00:21:21.528Z,99.90
2019-04-14T00:23:54.363Z,99.90
2019-04-14T00:26:29.582Z,99.90
2019-04-14T00:29:00.066Z,99.90
2019-04-14T00:31:30.734Z,99.90
2019-04-14T00:34:02.833Z,99.90
2019-04-14T00:39:27.025Z,99.90
2019-04-14T00:42:21.219Z,99.90
2019-04-14T00:44:52.262Z,99.90
2019-04-14T00:47:23.213Z,99.90
2019-04-14T00:49:53.038Z,99.90
2019-04-14T00:52:23.362Z,99.90
2019-04-14T00:54:52.871Z,99.90
2019-04-14T00:57:22.428Z,99.90
2019-04-14T00:59:53.330Z,99.90
2019-04-14T01:02:23.226Z,99.90
2019-04-14T01:04:53.403Z,99.90
2019-04-14T01:07:43.347Z,99.90
2019-04-14T01:10:12.891Z,99.90
2019-04-14T01:12:43.167Z,99.90
2019-04-14T01:15:13.684Z,99.90
2019-04-14T01:17:43.873Z,99.90
2019-04-14T01:20:32.545Z,99.90
2019-04-14T01:23:02.179Z,99.90
2019-04-14T01:25:32.439Z,99.90
2019-04-14T01:28:02.514Z,99.90
2019-04-14T01:30:32.707Z,99.90
2019-04-14T01:33:03.177Z,99.90
2019-04-14T01:35:35.735Z,99.90
2019-04-14T01:38:07.996Z,99.90
2019-04-14T01:40:38.170Z,99.90
2019-04-14T01:43:09.981Z,99.90
2019-04-14T01:45:40.284Z,99.90
2019-04-14T01:48:10.534Z,99.90
2019-04-14T01:50:41.645Z,99.90
2019-04-14T01:53:12.650Z,99.90
2019-04-14T01:55:44.121Z,99.90
2019-04-14T01:58:16.345Z,99.90
2019-04-14T02:00:56.214Z,99.90
2019-04-14T02:03:25.975Z,99.90
2019-04-14T02:05:56.067Z,99.90
2019-04-14T02:08:26.266Z,99.90
2019-04-14T02:10:56.576Z,99.90
2019-04-14T02:13:26.813Z,99.90
2019-04-14T02:15:57.330Z,99.90
2019-04-14T02:18:27.238Z,99.90
2019-04-14T02:20:57.810Z,99.90
2019-04-14T02:23:47.483Z,99.90
2019-04-14T02:26:24.214Z,99.90
2019-04-14T02:28:53.458Z,99.90
2019-04-14T02:31:43.370Z,99.90
2019-04-14T02:34:25.935Z,99.90
2019-04-14T02:39:29.283Z,99.90
2019-04-14T02:46:59.969Z,99.90
2019-04-14T02:49:27.242Z,99.90
2019-04-14T02:51:56.124Z,99.90
2019-04-14T02:54:36.638Z,99.90
2019-04-14T02:57:30.480Z,99.90
2019-04-14T02:59:49.590Z,99.90
2019-04-14T03:04:50.570Z,99.90
2019-04-14T03:07:34.139Z,99.90
2019-04-14T03:12:29.094Z,99.90
2019-04-14T03:14:53.585Z,99.90
2019-04-14T03:17:30.049Z,99.90
2019-04-14T03:20:24.409Z,99.90
2019-04-14T03:22:49.798Z,99.90
2019-04-14T03:25:30.159Z,99.90
2019-04-14T03:28:28.353Z,99.90
2019-04-14T03:34:11.097Z,99.90
2019-04-14T03:36:58.686Z,99.90
2019-04-14T03:38:53.640Z,99.90
2019-04-14T03:41:17.429Z,99.90
2019-04-14T03:44:03.227Z,99.90
2019-04-14T03:46:36.255Z,99.90
2019-04-14T03:49:07.477Z,99.90
2019-04-14T03:51:44.780Z,99.90
2019-04-14T03:53:59.830Z,99.90
2019-04-14T03:56:17.715Z,99.90
2019-04-14T03:59:06.261Z,99.90
2019-04-14T04:01:36.711Z,99.90
2019-04-14T04:04:07.414Z,99.90
2019-04-14T04:06:37.808Z,99.90
2019-04-14T04:09:08.369Z,99.90
2019-04-14T04:11:38.928Z,99.90
2019-04-14T04:14:09.541Z,99.90
2019-04-14T04:16:59.485Z,99.90
2019-04-14T04:19:47.126Z,99.90
2019-04-14T04:22:19.257Z,99.90
2019-04-14T04:24:59.360Z,99.90
2019-04-14T04:27:37.508Z,99.90
2019-04-14T04:30:27.886Z,99.90
2019-04-14T04:33:13.995Z,99.90
2019-04-14T04:36:16.512Z,99.90
2019-04-14T04:38:53.215Z,99.90
2019-04-14T04:41:23.287Z,99.90
2019-04-14T04:43:53.825Z,99.90
2019-04-14T04:46:24.334Z,99.90
2019-04-14T04:49:04.470Z,99.90
2019-04-14T04:51:24.686Z,99.90
2019-04-14T04:53:54.871Z,99.90
2019-04-14T04:56:25.386Z,99.90
2019-04-14T04:58:54.771Z,99.90
2019-04-14T05:01:23.998Z,99.90
2019-04-14T05:03:53.627Z,99.90
2019-04-14T05:06:41.624Z,99.90
2019-04-14T05:09:12.851Z,99.90
2019-04-14T05:12:00.288Z,99.90
2019-04-14T05:14:37.346Z,99.90
2019-04-14T05:17:07.726Z,99.90
2019-04-14T05:19:39.345Z,99.90
2019-04-14T05:22:09.165Z,99.90
2019-04-14T05:24:57.886Z,99.90
2019-04-14T05:27:27.646Z,99.90
2019-04-14T05:29:58.031Z,99.90
2019-04-14T05:32:28.285Z,99.90
2019-04-14T05:34:58.682Z,99.90
2019-04-14T05:37:29.014Z,99.90
2019-04-14T05:39:59.359Z,99.90
2019-04-14T05:42:30.123Z,99.90
2019-04-14T05:45:00.031Z,99.90
2019-04-14T05:47:30.445Z,99.90
2019-04-14T05:50:00.885Z,99.90
2019-04-14T05:52:30.344Z,99.90
2019-04-14T05:55:00.087Z,99.90
2019-04-14T05:57:30.515Z,99.90
2019-04-14T05:59:59.987Z,99.90
2019-04-14T06:02:30.502Z,99.90
2019-04-14T06:05:01.425Z,99.90
2019-04-14T06:07:30.918Z,99.90
2019-04-14T06:10:00.171Z,99.90
2019-04-14T06:12:29.516Z,99.90
2019-04-14T06:14:58.811Z,99.90
2019-04-14T06:17:28.095Z,99.90
2019-04-14T06:19:57.340Z,99.90
2019-04-14T06:22:26.662Z,99.90
2019-04-14T06:24:55.921Z,99.90
2019-04-14T06:27:25.177Z,99.90
2019-04-14T06:29:56.074Z,99.90
2019-04-14T06:32:27.035Z,99.90
2019-04-14T06:37:50.342Z,99.90
2019-04-14T06:40:20.910Z,99.90
2019-04-14T06:42:55.304Z,99.90
2019-04-14T06:45:26.108Z,99.90
2019-04-14T06:47:55.575Z,99.90
2019-04-14T06:50:24.886Z,99.90
2019-04-14T06:52:58.038Z,99.90
2019-04-14T06:55:27.362Z,99.90
2019-04-14T06:57:56.630Z,99.90
2019-04-14T07:00:26.062Z,99.90
2019-04-14T07:02:55.332Z,99.90
2019-04-14T07:05:24.603Z,99.90
2019-04-14T07:07:57.311Z,99.90
2019-04-14T07:10:24.928Z,99.90
2019-04-14T07:13:14.054Z,99.90
2019-04-14T07:16:02.897Z,99.90
2019-04-14T07:18:51.570Z,99.90
2019-04-14T07:21:20.881Z,99.90
2019-04-14T07:23:50.155Z,99.90
2019-04-14T07:26:19.402Z,99.90
2019-04-14T07:28:56.573Z,99.90
2019-04-14T07:31:37.823Z,99.90
2019-04-14T07:34:18.004Z,99.90
2019-04-14T07:36:55.183Z,99.90
2019-04-14T07:39:32.322Z,99.90
2019-04-14T07:42:18.588Z,99.90
2019-04-14T07:44:49.595Z,99.90
2019-04-14T07:47:26.114Z,99.90
2019-04-14T07:49:59.794Z,99.90
2019-04-14T07:52:47.210Z,99.90
2019-04-14T07:55:27.174Z,99.90
2019-04-14T07:58:04.103Z,99.90
2019-04-14T08:00:40.875Z,99.90
2019-04-14T08:06:22.099Z,99.90
2019-04-14T08:08:51.384Z,99.90
2019-04-14T08:11:20.708Z,99.90
2019-04-14T08:13:50.037Z,99.90
2019-04-14T08:16:19.281Z,99.90
2019-04-14T08:18:48.587Z,99.90
2019-04-14T08:21:17.853Z,99.90
2019-04-14T08:23:47.119Z,99.90
2019-04-14T08:26:16.491Z,99.90
2019-04-14T08:28:45.819Z,99.90
2019-04-14T08:31:15.211Z,99.90
2019-04-14T08:33:46.395Z,99.90
2019-04-14T08:36:15.650Z,99.90
2019-04-14T08:38:44.926Z,99.90
2019-04-14T08:41:14.547Z,99.90
2019-04-14T08:43:45.530Z,99.90
2019-04-14T08:46:19.379Z,99.90
2019-04-14T08:49:09.658Z,99.90
2019-04-14T08:51:43.315Z,99.90
2019-04-14T08:57:18.065Z,99.90
2019-04-14T08:59:55.003Z,99.90
2019-04-14T09:02:25.885Z,99.90
2019-04-14T09:05:18.590Z,99.90
2019-04-14T09:07:49.558Z,99.90
2019-04-14T09:10:21.952Z,99.90
2019-04-14T09:15:41.255Z,99.90
2019-04-14T09:18:10.558Z,99.90
2019-04-14T09:20:51.379Z,99.90
2019-04-14T09:23:10.828Z,99.90
2019-04-14T09:25:40.184Z,99.90
2019-04-14T09:28:09.457Z,99.90
2019-04-14T09:30:39.118Z,99.90
2019-04-14T09:33:08.520Z,99.90
2019-04-14T09:35:37.791Z,99.90
2019-04-14T09:38:07.189Z,99.90
2019-04-14T09:40:36.476Z,99.90
2019-04-14T09:43:05.855Z,99.90
2019-04-14T09:45:35.206Z,99.90
2019-04-14T09:48:23.820Z,99.90
2019-04-14T09:51:04.269Z,99.90
2019-04-14T09:53:43.505Z,99.90
2019-04-14T09:56:12.766Z,99.90
2019-04-14T09:58:42.214Z,99.90
2019-04-14T10:01:11.460Z,99.90
2019-04-14T10:03:40.879Z,99.90
2019-04-14T10:06:10.309Z,99.20
2019-04-14T10:08:41.481Z,97.20
2019-04-14T10:11:10.963Z,96.40
2019-04-14T10:13:40.386Z,95.00
2019-04-14T10:16:09.797Z,94.90
2019-04-14T10:18:58.397Z,95.10
2019-04-14T10:21:27.668Z,94.60
2019-04-14T10:23:56.924Z,94.20
2019-04-14T10:26:26.233Z,94.00
2019-04-14T10:28:55.489Z,92.70
2019-04-14T10:31:24.755Z,94.70
2019-04-14T10:33:54.049Z,96.10
2019-04-14T10:36:42.678Z,98.80
2019-04-14T10:39:12.078Z,98.30
2019-04-14T10:41:41.428Z,95.10
2019-04-14T10:44:10.689Z,95.60
2019-04-14T10:46:40.067Z,94.00
2019-04-14T10:49:09.468Z,94.40
2019-04-14T10:51:38.836Z,95.10
2019-04-14T10:54:08.091Z,96.50
2019-04-14T10:56:37.398Z,95.60
2019-04-14T10:59:06.845Z,95.90
2019-04-14T11:01:36.216Z,96.50
2019-04-14T11:04:07.898Z,97.10
2019-04-14T11:06:40.966Z,95.90
2019-04-14T11:09:29.635Z,94.40
2019-04-14T11:11:58.971Z,94.30
2019-04-14T11:14:28.319Z,92.00
2019-04-14T11:16:57.600Z,92.80
2019-04-14T11:19:30.096Z,93.00
2019-04-14T11:21:59.445Z,95.30
2019-04-14T11:24:28.725Z,95.60
2019-04-14T11:26:57.959Z,94.50
2019-04-14T11:29:27.295Z,94.30
2019-04-14T11:32:01.218Z,92.40
2019-04-14T11:34:38.011Z,93.00
2019-04-14T11:37:25.528Z,93.20
2019-04-14T11:39:54.976Z,91.90
2019-04-14T11:42:24.415Z,91.80
2019-04-14T11:44:53.754Z,94.20
2019-04-14T11:47:23.150Z,94.30
2019-04-14T11:52:59.359Z,91.20
2019-04-14T11:55:28.929Z,90.00
2019-04-14T11:57:58.427Z,91.30
2019-04-14T12:00:41.504Z,91.40
2019-04-14T12:03:34.764Z,91.60
2019-04-14T12:06:08.429Z,90.30
2019-04-14T12:08:57.455Z,89.00
2019-04-14T12:11:26.763Z,88.20
2019-04-14T12:13:56.151Z,84.10
2019-04-14T12:16:25.476Z,84.60
2019-04-14T12:18:54.827Z,86.80
2019-04-14T12:21:24.257Z,88.60
2019-04-14T12:23:53.665Z,89.00
2019-04-14T12:26:24.441Z,90.20
2019-04-14T12:28:53.822Z,91.20
2019-04-14T12:31:24.188Z,91.20
2019-04-14T12:33:53.613Z,90.50
2019-04-14T12:36:22.986Z,91.10
2019-04-14T12:38:52.439Z,91.00
2019-04-14T12:41:24.176Z,93.00
2019-04-14T12:44:01.037Z,93.60
2019-04-14T12:46:45.492Z,93.40
2019-04-14T12:49:16.475Z,92.80
2019-04-14T12:52:07.360Z,93.10
2019-04-14T12:54:36.613Z,93.40
2019-04-14T12:57:06.009Z,92.90
2019-04-14T12:59:36.111Z,93.70
2019-04-14T13:02:26.449Z,93.70
2019-04-14T13:04:55.902Z,93.20
2019-04-14T13:07:25.228Z,93.90
2019-04-14T13:09:54.554Z,93.60
2019-04-14T13:12:23.867Z,94.60
2019-04-14T13:14:53.189Z,95.20
2019-04-14T13:17:22.580Z,95.60
2019-04-14T13:19:56.014Z,95.40
2019-04-14T13:22:33.917Z,94.80
2019-04-14T13:24:56.378Z,94.90
2019-04-14T13:27:26.089Z,95.00
2019-04-14T13:29:55.398Z,96.10
2019-04-14T13:32:35.436Z,96.60
2019-04-14T13:34:56.005Z,96.60
2019-04-14T13:37:25.416Z,96.70
2019-04-14T13:39:54.846Z,97.20
2019-04-14T13:42:24.312Z,98.10
2019-04-14T13:44:53.669Z,98.50
2019-04-14T13:47:42.380Z,99.50
2019-04-14T13:50:18.903Z,99.50
2019-04-14T13:52:48.264Z,99.90
2019-04-14T13:55:17.766Z,99.90
2019-04-14T13:57:47.087Z,99.90
2019-04-14T14:00:18.095Z,99.90
2019-04-14T14:02:47.349Z,99.60
2019-04-14T14:05:16.616Z,98.60
2019-04-14T14:07:45.993Z,99.00
2019-04-14T14:10:15.740Z,98.50
2019-04-14T14:12:58.184Z,98.80
2019-04-14T14:15:32.461Z,99.20
2019-04-14T14:18:06.328Z,99.60
2019-04-14T14:21:08.842Z,99.90
2019-04-14T14:23:39.806Z,99.90
2019-04-14T14:26:10.767Z,99.90
2019-04-14T14:29:00.943Z,99.90
2019-04-14T14:31:30.419Z,99.90
2019-04-14T14:33:59.755Z,99.90
2019-04-14T14:36:29.118Z,99.90
2019-04-14T14:38:58.476Z,99.90
2019-04-14T14:41:27.835Z,99.90
2019-04-14T14:43:57.180Z,99.90
2019-04-14T14:46:31.318Z,99.90
2019-04-14T14:49:11.426Z,99.90
2019-04-14T14:51:45.724Z,99.90
2019-04-14T14:54:15.027Z,99.90
2019-04-14T14:56:44.325Z,99.90
2019-04-14T14:59:13.742Z,99.90
2019-04-14T15:01:42.996Z,99.90
2019-04-14T15:04:14.738Z,99.90
2019-04-14T15:06:44.055Z,99.90
2019-04-14T15:09:13.331Z,99.90
2019-04-14T15:11:42.609Z,99.90
2019-04-14T15:14:12.015Z,99.90
2019-04-14T15:16:41.362Z,99.90
2019-04-14T15:19:10.741Z,99.90
2019-04-14T15:21:59.401Z,99.90
2019-04-14T15:24:28.792Z,99.90
2019-04-14T15:26:58.185Z,99.90
2019-04-14T15:29:27.592Z,99.90
2019-04-14T15:31:57.014Z,99.90
2019-04-14T15:34:26.353Z,99.90
2019-04-14T15:36:55.709Z,99.90
2019-04-14T15:39:24.975Z,99.90
2019-04-14T15:41:55.645Z,99.90
2019-04-14T15:44:25.012Z,99.90
2019-04-14T15:46:54.264Z,99.90
2019-04-14T15:49:24.117Z,99.90
2019-04-14T15:51:53.587Z,99.90
2019-04-14T15:54:25.307Z,99.90
2019-04-14T15:57:04.652Z,99.90
2019-04-14T16:00:11.230Z,99.90
2019-04-14T16:02:42.218Z,99.90
2019-04-14T16:08:16.924Z,99.90
2019-04-14T16:10:50.399Z,99.90
2019-04-14T16:13:46.307Z,99.90
2019-04-14T16:16:23.485Z,99.90
2019-04-14T16:19:00.724Z,99.90
2019-04-14T16:21:29.966Z,99.90
2019-04-14T16:23:59.275Z,99.90
2019-04-14T16:26:30.189Z,99.90
2019-04-14T16:29:02.597Z,99.90
2019-04-14T16:31:50.018Z,99.90
2019-04-14T16:34:37.146Z,99.90
2019-04-14T16:37:12.445Z,99.90
2019-04-14T16:39:41.728Z,99.90
2019-04-14T16:42:11.130Z,99.90
2019-04-14T16:44:40.442Z,99.90
2019-04-14T16:47:39.749Z,99.90
2019-04-14T16:50:09.256Z,99.90
2019-04-14T16:52:48.902Z,99.90
2019-04-14T16:55:22.330Z,99.90
2019-04-14T16:58:09.503Z,99.90
2019-04-14T17:00:59.773Z,99.90
2019-04-14T17:03:39.294Z,99.90
2019-04-14T17:06:08.745Z,99.90
2019-04-14T17:08:38.085Z,99.90
2019-04-14T17:11:07.410Z,99.90
2019-04-14T17:13:38.439Z,99.90
2019-04-14T17:16:15.232Z,99.90
2019-04-14T17:18:50.779Z,99.90
2019-04-14T17:21:36.871Z,99.90
2019-04-14T17:24:16.255Z,99.90
2019-04-14T17:26:52.073Z,99.90
2019-04-14T17:29:26.128Z,99.90
2019-04-14T17:32:16.532Z,99.90
2019-04-14T17:34:47.431Z,99.90
2019-04-14T17:37:18.354Z,99.90
2019-04-14T17:39:49.313Z,99.90
2019-04-14T17:42:38.747Z,99.90
2019-04-14T17:45:15.715Z,99.90
2019-04-14T17:47:59.901Z,99.90
2019-04-14T17:50:40.629Z,99.90
2019-04-14T17:53:18.508Z,99.90
2019-04-14T17:55:59.005Z,99.90
2019-04-14T17:58:32.795Z,99.90
2019-04-14T18:01:21.884Z,99.90
2019-04-14T18:03:52.850Z,99.90
2019-04-14T18:06:23.834Z,99.90
2019-04-14T18:09:00.608Z,99.90
2019-04-14T18:11:31.541Z,99.90
2019-04-14T18:14:02.560Z,99.90
2019-04-14T18:16:33.450Z,99.90
2019-04-14T18:19:13.425Z,99.90
2019-04-14T18:21:44.377Z,99.90
2019-04-14T18:24:14.002Z,99.90
2019-04-14T18:26:43.430Z,99.90
2019-04-14T18:29:26.678Z,99.90
2019-04-14T18:32:02.429Z,99.90
2019-04-14T18:34:33.436Z,99.90
2019-04-14T18:37:05.105Z,99.90
2019-04-14T18:39:53.614Z,99.90
2019-04-14T18:42:33.996Z,99.90
2019-04-14T18:45:05.691Z,99.90
2019-04-14T18:47:36.601Z,99.90
2019-04-14T18:50:24.040Z,99.90
2019-04-14T18:53:00.789Z,99.90
2019-04-14T18:55:40.704Z,99.90
2019-04-14T18:58:11.842Z,99.90
2019-04-14T19:01:01.068Z,99.90
2019-04-14T19:03:30.898Z,99.90
2019-04-14T19:06:00.607Z,99.90
2019-04-14T19:08:30.243Z,99.90
2019-04-14T19:11:13.974Z,99.90
2019-04-14T19:13:45.298Z,99.90
2019-04-14T19:16:39.573Z,99.90
2019-04-14T19:19:08.571Z,99.90
2019-04-14T19:21:37.988Z,99.90
2019-04-14T19:24:26.944Z,99.90
2019-04-14T19:26:59.627Z,99.90
2019-04-14T19:29:29.038Z,99.90
2019-04-14T19:31:58.322Z,99.90
2019-04-14T19:34:27.659Z,99.90
2019-04-14T19:36:56.923Z,99.90
2019-04-14T19:39:26.245Z,99.90
2019-04-14T19:41:55.496Z,99.90
2019-04-14T19:44:24.738Z,99.90
2019-04-14T19:46:54.076Z,99.90
2019-04-14T19:49:23.336Z,99.90
2019-04-14T19:51:52.708Z,99.90
2019-04-14T19:54:22.024Z,99.90
2019-04-14T19:56:51.296Z,99.90
2019-04-14T19:59:21.863Z,99.90
2019-04-14T20:01:51.117Z,99.90
2019-04-14T20:04:20.387Z,99.90
2019-04-14T20:07:09.087Z,99.90
2019-04-14T20:09:38.411Z,99.90
2019-04-14T20:12:09.469Z,99.90
2019-04-14T20:14:38.811Z,99.90
2019-04-14T20:20:27.258Z,99.90
2019-04-14T20:23:17.630Z,99.90
2019-04-14T20:25:48.610Z,99.90
2019-04-14T20:28:19.616Z,99.90
2019-04-14T20:30:50.658Z,99.90
2019-04-14T20:33:20.677Z,99.90
2019-04-14T20:35:49.964Z,99.90
2019-04-14T20:38:19.277Z,99.90
2019-04-14T20:40:48.592Z,99.90
2019-04-14T20:43:17.911Z,99.90
2019-04-14T20:45:47.173Z,99.90
2019-04-14T20:48:18.631Z,99.90
2019-04-14T20:50:48.004Z,99.90
2019-04-14T20:53:17.346Z,99.90
2019-04-14T20:55:47.652Z,99.90
2019-04-14T20:58:17.147Z,99.90
2019-04-14T21:00:48.921Z,99.90
2019-04-14T21:03:36.174Z,99.90
2019-04-14T21:06:29.079Z,99.90
2019-04-14T21:09:00.040Z,99.90
2019-04-14T21:11:30.962Z,99.90
2019-04-14T21:14:18.324Z,99.90
2019-04-14T21:17:05.984Z,99.90
2019-04-14T21:19:37.180Z,99.90
2019-04-14T21:22:24.906Z,99.90
2019-04-14T21:25:12.538Z,99.90
2019-04-14T21:27:59.677Z,99.90
2019-04-14T21:30:30.699Z,99.90
2019-04-14T21:33:11.443Z,99.90
2019-04-14T21:39:14.744Z,99.90
2019-04-14T21:41:45.704Z,99.90
2019-04-14T21:44:16.487Z,99.90
2019-04-14T21:46:46.050Z,99.90
2019-04-14T21:49:15.431Z,99.90
2019-04-14T21:52:01.502Z,99.90
2019-04-14T21:54:30.757Z,99.90
2019-04-14T21:57:13.435Z,99.90
2019-04-14T21:59:56.314Z,99.90
2019-04-14T22:02:43.665Z,99.90
2019-04-14T22:05:14.691Z,99.90
2019-04-14T22:07:51.421Z,99.90
2019-04-14T22:10:22.402Z,99.90
2019-04-14T22:12:51.657Z,99.90
2019-04-14T22:15:20.980Z,99.90
2019-04-14T22:17:50.775Z,99.90
2019-04-14T22:20:20.191Z,99.90
2019-04-14T22:22:52.547Z,99.90
2019-04-14T22:25:20.479Z,99.90
2019-04-14T22:27:51.366Z,99.90
2019-04-14T22:30:20.767Z,99.90
2019-04-14T22:32:50.154Z,99.90
2019-04-14T22:35:19.398Z,99.90
2019-04-14T22:37:48.686Z,99.90
2019-04-14T22:40:30.381Z,99.90
2019-04-14T22:42:59.694Z,99.90
2019-04-14T22:45:30.731Z,99.90
2019-04-14T22:47:59.991Z,99.90
2019-04-14T22:50:29.291Z,99.90
2019-04-14T22:52:58.583Z,99.90
2019-04-14T22:55:47.222Z,99.90
2019-04-14T22:58:16.457Z,99.90
2019-04-14T23:00:50.183Z,99.90
2019-04-14T23:03:36.181Z,99.90
2019-04-14T23:06:22.365Z,99.90
2019-04-14T23:09:09.709Z,99.90
2019-04-14T23:11:40.608Z,99.90
2019-04-14T23:14:17.500Z,99.90
2019-04-14T23:16:51.198Z,99.90
2019-04-14T23:19:41.494Z,99.90
2019-04-14T23:22:24.210Z,99.90
2019-04-14T23:24:53.494Z,99.90
2019-04-14T23:27:22.817Z,99.90
2019-04-14T23:29:52.064Z,99.90
2019-04-14T23:32:21.562Z,99.90
2019-04-14T23:34:50.831Z,99.90
2019-04-14T23:37:39.622Z,99.90
2019-04-14T23:40:09.313Z,99.90
2019-04-14T23:42:38.651Z,99.90
2019-04-14T23:45:08.146Z,99.90
2019-04-14T23:47:37.406Z,99.90
2019-04-14T23:50:08.598Z,99.90
2019-04-14T23:52:37.891Z,99.90
2019-04-14T23:55:08.095Z,99.90
2019-04-14T23:57:37.362Z,99.90
